ソウル/仁川 の空港の天気 - METARとTAF

仁川国際空港 ( RKSI / ICN ) - 韓国 仁川広域市 (ソウル特別市近郊)
飛行場実況気象(Metar)
観測時間07/20 20:30 KST (07/20 11:30 UTC)
風向・風速東 4m/s
視程10km以上
天気現象弱い雨
全天の8割程度の雲 雲底高度 910m
全天の8割程度の雲 雲底高度 3050m
気温28℃
湿度62%
気圧998hPa
METARRKSI 201130Z 09007KT 050V130 9999 -RA BKN030 BKN100 28/20 Q0998 NOSIG
過去の天気等 Google飛行場航空写真 Wunderground天気予報

過去48時間のMETAR

飛行場予報(TAF)
発表時間: 7/20 20:00 KST (7/20 11:00 UTC)
予報対象時間: 20日21時 KST ~ 22日3時 KST
風向・風速北東 5m/s
視程7000m
少しの雲 雲底高度 300m
全天の8割程度の雲 雲底高度 760m
全天の8割程度の雲 雲底高度 3050m
21日3時 KST ~ 21日4時 KST に徐々に
風向・風速北北西 5m/s
天気現象弱い雨
21日5時 KST ~ 21日6時 KST に徐々に
風向・風速西 6m/s
天気現象運行に影響にある天気現象が終了
21日12時 KST ~ 21日13時 KST に徐々に
風向・風速南西 5m/s
天気現象弱い雨
21日14時 KST ~ 21日15時 KST に徐々に
天気現象運行に影響にある天気現象が終了
全天の4割程度の雲 雲底高度 910m
全天の8割程度の雲 雲底高度 4570m
TAF RKSI 201100Z 2012/2118 05010KT 7000 FEW010 BKN025 BKN100 TN23/2021Z TX28/2106Z
BECMG 2018/2019 34010KT -RA
BECMG 2020/2021 27012KT NSW
BECMG 2103/2104 23010KT -RA
BECMG 2105/2106 NSW SCT030 BKN150